LICB/CIY METAR and TAF weather

Enter ICAO airport designator
Station Type Date Time Source
LICB METAR 2020/07/02 21:20 UTC NOAA

LICB 022120Z AUTO 21003KT 160V230 9999 NCD 22/21 Q1011


Station Type Date Time Source
LICB Decoded METAR 2020/07/02 21:20 UTC NOAA

Comiso As Usaf , Italy (LICB) 36-56N 014-36E
Jul 02, 2020 - 05:20 PM EDT / 2020.07.02 2120 UTC
Wind: from the SSW (210 degrees) at 3 MPH (3 KT) (direction variable):0
Visibility: greater than 7 mile(s):0
Temperature: 71 F (22 C)
Dew Point: 69 F (21 C)
Relative Humidity: 94%
Pressure (altimeter): 29.85 in. Hg (1011 hPa)
ob: LICB 022120Z AUTO 21003KT 160V230 9999 NCD 22/21 Q1011
cycle: 21

Station Type Date Time Source
LICB TAF UTC NOAA

Error!

Example: see airport list